Time;durP1;ratioP1;P1;durP2;ratioP2;P2;SDS_P1;SDS_P2;PMS_P1;PMS_P2;Temp;Humidity;BMP_temperature;BMP_pressure;BME280_temperature;BME280_humidity;BME280_pressure;Samples;Min_cycle;Max_cycle;Signal;HPM_P1;HPM_P2
2022/03/07 00:00:51;;;;;;;29.20;19.80;;;;;;;2.36;50.26;99498.80;233176;1218;139379;-62
2022/03/07 00:05:54;;;;;;;30.10;19.90;;;;;;;2.34;50.34;99500.58;233185;1219;138870;-61
2022/03/07 00:10:57;;;;;;;27.30;18.80;;;;;;;2.34;50.37;99498.82;233155;1219;138746;-62
2022/03/07 00:16:01;;;;;;;29.20;19.20;;;;;;;2.32;50.41;99501.33;233198;1219;139921;-64
2022/03/07 00:21:06;;;;;;;28.90;19.40;;;;;;;2.31;50.38;99502.21;233115;1219;139916;-63
2022/03/07 00:26:09;;;;;;;41.20;25.80;;;;;;;2.33;50.55;99500.78;233271;1219;138853;-62
2022/03/07 00:31:13;;;;;;;29.70;19.80;;;;;;;2.39;50.53;99503.12;233083;1219;139937;-63
2022/03/07 00:36:18;;;;;;;29.60;18.70;;;;;;;2.37;50.27;99501.75;233136;1219;139075;-63
2022/03/07 00:41:21;;;;;;;28.80;18.70;;;;;;;2.33;50.38;99495.17;233234;1219;139789;-66
2022/03/07 00:46:24;;;;;;;28.70;19.00;;;;;;;2.30;50.32;99491.40;233302;1219;138627;-65
2022/03/07 00:51:27;;;;;;;27.20;18.70;;;;;;;2.25;50.24;99492.56;233171;1219;139988;-62
2022/03/07 00:56:30;;;;;;;30.50;20.00;;;;;;;2.19;50.50;99492.84;233082;1219;139252;-61
2022/03/07 01:01:34;;;;;;;33.60;19.40;;;;;;;2.16;50.49;99487.84;232980;1219;140029;-63
2022/03/07 01:06:37;;;;;;;27.10;18.40;;;;;;;2.14;50.64;99486.83;233218;1218;139343;-64
2022/03/07 01:11:41;;;;;;;27.60;18.70;;;;;;;2.10;50.59;99487.77;233131;1219;138946;-63
2022/03/07 01:16:44;;;;;;;31.10;19.10;;;;;;;2.08;50.62;99487.64;233295;1219;138776;-62
2022/03/07 01:21:49;;;;;;;25.90;17.40;;;;;;;2.05;50.88;99490.85;233138;1219;138688;-63
2022/03/07 01:26:54;;;;;;;26.20;17.30;;;;;;;1.98;50.83;99485.40;233167;1219;140419;-61
2022/03/07 01:31:57;;;;;;;26.50;17.50;;;;;;;1.93;51.23;99483.92;233132;1219;139453;-63
2022/03/07 01:37:03;;;;;;;26.10;17.30;;;;;;;1.88;51.40;99479.82;233264;1219;138991;-64
2022/03/07 01:42:07;;;;;;;28.10;17.70;;;;;;;1.83;51.67;99478.88;233167;1219;138814;-64
2022/03/07 01:47:10;;;;;;;27.90;18.20;;;;;;;1.78;51.85;99481.08;233113;1219;138911;-63
2022/03/07 01:52:18;;;;;;;25.90;18.10;;;;;;;1.70;52.09;99481.92;233129;1219;139404;-60
2022/03/07 01:57:24;;;;;;;29.70;18.20;;;;;;;1.63;52.52;99482.58;233228;1219;138894;-61
2022/03/07 02:02:27;;;;;;;27.20;18.10;;;;;;;1.59;52.57;99480.56;233227;1219;138981;-59
2022/03/07 02:07:31;;;;;;;26.80;18.00;;;;;;;1.54;52.73;99480.12;232940;1219;138928;-63
2022/03/07 02:12:36;;;;;;;27.70;18.80;;;;;;;1.51;52.90;99477.90;233141;1220;141331;-62
2022/03/07 02:17:45;;;;;;;29.00;18.50;;;;;;;1.47;53.03;99476.77;233163;1219;138635;-62
2022/03/07 02:22:48;;;;;;;24.90;18.00;;;;;;;1.44;53.17;99470.16;233173;1220;140055;-59
2022/03/07 02:27:51;;;;;;;28.50;18.80;;;;;;;1.41;53.22;99462.16;233300;1220;138708;-61
2022/03/07 02:32:55;;;;;;;31.30;19.90;;;;;;;1.37;53.37;99460.52;233250;1219;139220;-60
2022/03/07 02:37:59;;;;;;;27.80;18.20;;;;;;;1.36;53.32;99454.94;233172;1219;138846;-64
2022/03/07 02:43:04;;;;;;;29.40;19.60;;;;;;;1.34;53.34;99452.35;233175;1218;138577;-61
2022/03/07 02:48:09;;;;;;;30.90;19.70;;;;;;;1.33;53.36;99450.45;233138;1220;138918;-63
2022/03/07 02:53:13;;;;;;;27.90;19.60;;;;;;;1.33;53.36;99447.11;233257;1219;138727;-65
2022/03/07 02:58:16;;;;;;;26.60;18.80;;;;;;;1.35;53.27;99442.71;233190;1219;138724;-62
2022/03/07 03:03:22;;;;;;;28.00;20.10;;;;;;;1.37;53.18;99439.36;233202;1219;138221;-68
2022/03/07 03:08:25;;;;;;;28.70;19.60;;;;;;;1.40;53.29;99438.08;233232;1220;138663;-64
2022/03/07 03:13:28;;;;;;;28.40;19.20;;;;;;;1.43;53.07;99438.38;233209;1220;138812;-62
2022/03/07 03:18:31;;;;;;;27.80;18.90;;;;;;;1.44;52.86;99433.11;233303;1219;138857;-60
2022/03/07 03:23:35;;;;;;;27.60;18.10;;;;;;;1.42;52.56;99435.08;233277;1219;139172;-63
2022/03/07 03:28:37;;;;;;;25.80;18.20;;;;;;;1.39;52.24;99429.54;233290;1219;139116;-64
2022/03/07 03:33:42;;;;;;;30.00;18.20;;;;;;;1.36;52.14;99427.16;233451;1219;138724;-63
2022/03/07 03:38:45;;;;;;;27.10;18.00;;;;;;;1.35;51.85;99424.88;233056;1219;139402;-63
2022/03/07 03:43:49;;;;;;;28.10;18.00;;;;;;;1.36;51.62;99425.05;233195;1218;138905;-60
2022/03/07 03:48:52;;;;;;;22.80;17.00;;;;;;;1.38;51.27;99417.83;233121;1219;139049;-64
2022/03/07 03:53:55;;;;;;;285.10;189.40;;;;;;;1.40;50.88;99411.84;233172;1220;138662;-66
2022/03/07 03:58:59;;;;;;;37.80;24.80;;;;;;;1.51;51.17;99410.94;233334;1219;139452;-63
2022/03/07 04:04:02;;;;;;;26.00;17.40;;;;;;;1.61;50.67;99408.30;233357;1217;138697;-62
2022/03/07 04:09:08;;;;;;;24.50;15.50;;;;;;;1.58;50.36;99408.70;233302;1217;152869;-62
2022/03/07 04:14:19;;;;;;;64.20;40.70;;;;;;;1.85;51.60;99397.84;233310;1217;139063;-63
2022/03/07 04:19:27;;;;;;;23.40;15.20;;;;;;;2.16;49.90;99405.40;233138;1219;138868;-63
2022/03/07 04:24:31;;;;;;;16.40;10.90;;;;;;;2.05;48.34;99411.75;233211;1219;139142;-62
2022/03/07 04:29:34;;;;;;;15.70;10.60;;;;;;;1.93;47.81;99405.04;233214;1219;139287;-63
2022/03/07 04:34:37;;;;;;;17.40;10.60;;;;;;;1.80;47.26;99406.17;232962;1221;139911;-63
2022/03/07 04:39:40;;;;;;;37.80;20.10;;;;;;;1.71;47.11;99404.77;233379;1219;138814;-64
2022/03/07 04:44:43;;;;;;;18.50;12.20;;;;;;;1.82;47.00;99405.77;233251;1220;138655;-63
2022/03/07 04:49:47;;;;;;;18.40;11.60;;;;;;;1.79;46.38;99406.54;233220;1219;138892;-62
2022/03/07 04:54:49;;;;;;;19.40;12.00;;;;;;;1.76;46.22;99412.20;233079;1219;139064;-63
2022/03/07 04:59:52;;;;;;;21.50;12.90;;;;;;;1.72;46.17;99416.65;233343;1220;139003;-65
2022/03/07 05:04:56;;;;;;;21.00;13.40;;;;;;;1.63;46.09;99419.09;233222;1219;138940;-63
2022/03/07 05:09:59;;;;;;;19.50;13.60;;;;;;;1.59;46.28;99419.00;233433;1217;139042;-63
2022/03/07 05:15:03;;;;;;;22.90;15.20;;;;;;;1.56;46.41;99420.28;233201;1219;138824;-64
2022/03/07 05:20:06;;;;;;;30.00;15.50;;;;;;;1.54;46.64;99425.23;233212;1219;139432;-63
2022/03/07 05:25:11;;;;;;;27.20;16.90;;;;;;;1.51;46.63;99424.75;233210;1218;139160;-64
2022/03/07 05:30:18;;;;;;;25.90;17.50;;;;;;;1.48;46.54;99429.36;233207;1219;139735;-65
2022/03/07 05:35:22;;;;;;;28.40;16.30;;;;;;;1.52;46.74;99427.52;233200;1219;141006;-65
2022/03/07 05:40:26;;;;;;;26.50;17.40;;;;;;;1.53;46.76;99433.10;233294;1219;138878;-64
2022/03/07 05:45:29;;;;;;;23.10;16.70;;;;;;;1.45;46.76;99438.15;233348;1219;138923;-65
2022/03/07 05:50:32;;;;;;;26.60;17.20;;;;;;;1.43;46.94;99443.27;233273;1217;138383;-65
2022/03/07 05:55:35;;;;;;;22.40;15.50;;;;;;;1.46;46.92;99441.11;233232;1220;138980;-64
2022/03/07 06:00:38;;;;;;;28.20;16.10;;;;;;;1.45;46.92;99443.23;233145;1220;139141;-62
2022/03/07 06:05:41;;;;;;;27.30;17.30;;;;;;;1.45;46.96;99446.89;233107;1219;138758;-63
2022/03/07 06:10:44;;;;;;;24.50;18.10;;;;;;;1.49;47.03;99447.35;233084;1218;139961;-62
2022/03/07 06:15:47;;;;;;;30.30;18.30;;;;;;;1.54;47.13;99451.80;233164;1220;140189;-63
2022/03/07 06:20:50;;;;;;;26.60;17.60;;;;;;;1.47;47.04;99451.39;233193;1219;138466;-65
2022/03/07 06:25:53;;;;;;;24.40;17.30;;;;;;;1.43;47.32;99446.06;233219;1217;138645;-68
2022/03/07 06:30:56;;;;;;;24.80;16.30;;;;;;;1.32;47.23;99448.71;233000;1219;141284;-63
2022/03/07 06:35:59;;;;;;;26.70;17.40;;;;;;;1.29;47.71;99446.84;233145;1219;139318;-62
2022/03/07 06:41:02;;;;;;;23.80;16.90;;;;;;;1.32;47.96;99448.89;233272;1218;138951;-62
2022/03/07 06:46:05;;;;;;;26.30;18.10;;;;;;;1.31;48.09;99452.21;233326;1217;139097;-62
2022/03/07 06:51:09;;;;;;;22.70;15.90;;;;;;;1.30;48.56;99446.98;233187;1219;138901;-62
2022/03/07 06:56:12;;;;;;;25.70;17.40;;;;;;;1.27;48.68;99451.77;232816;1219;138690;-63
2022/03/07 07:01:15;;;;;;;27.00;16.80;;;;;;;1.25;48.93;99452.31;233331;1219;138866;-66
2022/03/07 07:06:21;;;;;;;26.40;17.30;;;;;;;1.25;48.98;99459.31;233083;1219;138527;-64
2022/03/07 07:11:24;;;;;;;27.00;17.60;;;;;;;1.24;49.15;99464.07;233160;1219;138759;-65
2022/03/07 07:16:26;;;;;;;26.50;18.50;;;;;;;1.26;49.37;99467.00;233123;1219;138616;-63
2022/03/07 07:21:30;;;;;;;28.90;17.60;;;;;;;1.33;49.46;99467.92;233225;1219;138703;-67
2022/03/07 07:26:33;;;;;;;25.40;16.90;;;;;;;1.37;49.70;99468.90;233180;1219;138757;-64
2022/03/07 07:31:37;;;;;;;27.50;16.70;;;;;;;1.45;49.74;99469.98;233260;1218;139938;-64
2022/03/07 07:36:40;;;;;;;23.40;15.90;;;;;;;1.49;49.62;99470.95;233134;1218;139144;-66
2022/03/07 07:41:43;;;;;;;23.90;16.00;;;;;;;1.50;49.71;99471.63;233159;1219;140027;-63
2022/03/07 07:46:46;;;;;;;23.70;16.10;;;;;;;1.51;49.84;99470.58;233162;1219;139697;-65
2022/03/07 07:51:51;;;;;;;25.90;16.60;;;;;;;1.49;49.95;99467.45;233285;1219;138838;-64
2022/03/07 07:56:54;;;;;;;29.00;16.10;;;;;;;1.53;50.09;99464.92;233199;1218;138216;-63
2022/03/07 08:01:57;;;;;;;24.40;15.10;;;;;;;1.55;50.15;99460.70;233120;1219;138610;-64
2022/03/07 08:07:00;;;;;;;27.10;15.70;;;;;;;1.57;50.17;99457.70;233181;1219;138595;-63
2022/03/07 08:12:03;;;;;;;24.80;15.40;;;;;;;1.62;50.24;99452.17;233324;1219;138967;-66
2022/03/07 08:17:06;;;;;;;24.10;14.70;;;;;;;1.71;50.27;99458.13;233259;1219;139365;-62
2022/03/07 08:22:09;;;;;;;22.70;14.90;;;;;;;1.78;50.20;99462.54;233223;1219;139297;-62
2022/03/07 08:27:12;;;;;;;19.90;12.60;;;;;;;1.87;50.20;99455.70;233222;1219;138556;-61
2022/03/07 08:32:15;;;;;;;17.90;12.30;;;;;;;1.89;50.01;99451.27;233247;1219;139575;-61
2022/03/07 08:37:18;;;;;;;23.20;11.50;;;;;;;2.00;50.04;99446.16;233131;1219;139007;-61
2022/03/07 08:42:21;;;;;;;18.10;11.60;;;;;;;2.08;49.87;99444.08;233228;1219;140303;-62
2022/03/07 08:47:24;;;;;;;16.30;11.00;;;;;;;2.15;49.72;99442.36;233214;1219;138910;-62
2022/03/07 08:52:28;;;;;;;17.80;11.90;;;;;;;2.23;49.47;99442.17;233186;1217;139371;-62
2022/03/07 08:57:31;;;;;;;18.40;12.20;;;;;;;2.26;49.15;99445.25;233420;1219;139120;-64
2022/03/07 09:02:34;;;;;;;19.70;12.90;;;;;;;2.31;49.11;99447.60;233307;1219;138776;-62
2022/03/07 09:07:37;;;;;;;24.70;14.30;;;;;;;2.39;49.28;99450.92;233199;1218;138526;-62
2022/03/07 09:12:40;;;;;;;24.20;14.30;;;;;;;2.43;49.19;99448.58;233176;1219;138867;-63
2022/03/07 09:17:43;;;;;;;21.40;14.10;;;;;;;2.40;49.25;99446.02;233270;1219;138970;-63
2022/03/07 09:22:46;;;;;;;25.10;15.30;;;;;;;2.40;49.23;99453.00;233243;1218;138899;-62
2022/03/07 09:27:50;;;;;;;21.60;14.10;;;;;;;2.35;49.20;99445.41;233301;1219;140925;-63
2022/03/07 09:32:54;;;;;;;22.40;12.70;;;;;;;2.44;49.45;99448.70;233043;1218;138751;-65
2022/03/07 09:37:57;;;;;;;19.20;12.80;;;;;;;2.53;49.33;99442.90;233151;1219;138903;-61
2022/03/07 09:43:00;;;;;;;17.50;10.80;;;;;;;2.62;49.03;99444.98;233065;1218;225306;-64
2022/03/07 09:48:05;;;;;;;12.90;9.60;;;;;;;2.73;48.86;99450.49;233235;1218;138876;-61
2022/03/07 09:53:09;;;;;;;15.60;9.70;;;;;;;2.85;48.57;99445.48;233073;1219;138809;-61
2022/03/07 09:58:13;;;;;;;17.00;9.40;;;;;;;3.01;48.32;99449.14;233257;1219;138380;-64
2022/03/07 10:03:18;;;;;;;12.20;8.20;;;;;;;3.12;48.07;99446.05;233214;1219;138938;-61
2022/03/07 10:08:26;;;;;;;12.30;8.90;;;;;;;3.28;47.83;99444.06;233221;1219;139147;-60
2022/03/07 10:13:29;;;;;;;11.90;7.50;;;;;;;3.46;47.66;99442.54;233206;1219;138628;-59
2022/03/07 10:18:33;;;;;;;13.70;7.70;;;;;;;3.57;46.99;99438.39;233104;1218;139192;-63
2022/03/07 10:23:36;;;;;;;9.70;7.00;;;;;;;3.62;47.12;99437.73;233120;1218;139297;-64
2022/03/07 10:28:41;;;;;;;10.70;6.20;;;;;;;3.76;46.95;99435.20;233185;1219;138715;-63
2022/03/07 10:33:45;;;;;;;;;;;;;;;3.86;46.94;99439.17;233271;1219;138180;-64
2022/03/07 10:38:56;;;;;;;10.60;6.40;;;;;;;3.90;46.70;99440.61;233166;1218;125737;-62
2022/03/07 10:43:59;;;;;;;22.10;12.00;;;;;;;4.01;47.02;99432.91;233075;1219;138763;-63
2022/03/07 10:49:05;;;;;;;12.80;7.20;;;;;;;4.18;46.65;99426.13;232815;1218;162680;-63
2022/03/07 10:54:11;;;;;;;12.40;6.40;;;;;;;4.29;46.74;99427.54;233087;1219;138175;-63
2022/03/07 10:59:24;;;;;;;14.00;8.20;;;;;;;4.39;48.82;99420.89;232489;1219;138657;-63
2022/03/07 11:04:27;;;;;;;9.40;5.40;;;;;;;5.61;49.91;99412.98;232971;1219;138877;-62
2022/03/07 11:09:30;;;;;;;12.50;5.90;;;;;;;5.72;47.60;99408.71;233202;1218;139744;-65
2022/03/07 11:14:36;;;;;;;10.80;6.30;;;;;;;5.59;46.22;99399.15;233071;1218;139837;-63
2022/03/07 11:19:40;;;;;;;10.00;6.40;;;;;;;5.54;46.05;99398.27;232517;1219;138722;-62
2022/03/07 11:24:43;;;;;;;13.20;6.70;;;;;;;5.50;45.74;99399.66;232986;1219;138681;-62
2022/03/07 11:29:46;;;;;;;12.30;7.40;;;;;;;5.39;45.17;99396.31;233178;1219;138736;-63
2022/03/07 11:35:02;;;;;;;12.20;7.30;;;;;;;5.25;45.11;99392.44;233170;1219;138825;-64
2022/03/07 11:40:19;;;;;;;11.20;6.40;;;;;;;5.14;45.25;99388.42;233260;1218;139946;-63
2022/03/07 11:45:22;;;;;;;9.90;6.10;;;;;;;5.12;45.29;99383.74;233116;1219;138618;-64
2022/03/07 11:50:32;;;;;;;13.20;6.20;;;;;;;5.10;45.20;99380.98;233122;1219;138947;-63
2022/03/07 11:55:50;;;;;;;12.50;6.50;;;;;;;5.04;44.89;99382.41;233262;1217;138491;-63
2022/03/07 12:01:09;;;;;;;11.30;6.60;;;;;;;4.92;44.69;99381.41;233269;1218;138945;-65
2022/03/07 12:06:15;;;;;;;11.00;7.10;;;;;;;4.80;44.90;99379.71;233186;1219;139009;-64
2022/03/07 12:11:26;;;;;;;;;;;;;;;4.71;45.01;99378.42;233301;1219;138576;-64
2022/03/07 12:16:35;;;;;;;20.20;13.00;;;;;;;4.85;46.83;99375.15;232842;1218;125072;-63
2022/03/07 12:21:41;;;;;;;14.20;8.30;;;;;;;5.00;46.10;99369.01;233159;1217;138929;-64
2022/03/07 12:26:49;;;;;;;15.90;7.40;;;;;;;4.86;45.31;99360.69;233108;1216;139409;-63
2022/03/07 12:31:58;;;;;;;12.70;6.70;;;;;;;4.78;45.11;99358.34;233026;1219;139003;-64
2022/03/07 12:37:03;;;;;;;11.50;7.50;;;;;;;4.72;44.98;99356.93;233109;1219;138913;-64
2022/03/07 12:42:06;;;;;;;7.80;4.90;;;;;;;4.72;45.08;99353.97;233371;1218;139040;-63
2022/03/07 12:47:11;;;;;;;14.60;7.00;;;;;;;4.82;45.55;99349.78;233166;1218;138422;-64
2022/03/07 12:52:30;;;;;;;10.90;7.50;;;;;;;5.06;45.60;99345.60;232962;1219;140349;-62
2022/03/07 12:57:34;;;;;;;10.40;6.30;;;;;;;5.38;45.16;99339.02;232917;1219;138537;-61
2022/03/07 13:02:49;;;;;;;10.60;6.30;;;;;;;5.39;45.01;99339.50;233203;1218;140437;-62
2022/03/07 13:07:54;;;;;;;;;;;;;;;5.32;44.95;99334.31;233213;1218;138398;-62
2022/03/07 13:13:00;;;;;;;14.50;6.20;;;;;;;5.22;44.42;99328.16;233290;1219;125082;-63
2022/03/07 13:18:05;;;;;;;8.50;5.40;;;;;;;5.15;44.50;99322.77;233098;1219;139125;-62
2022/03/07 13:23:27;;;;;;;13.20;5.80;;;;;;;5.19;44.36;99317.71;232640;1209;138478;31
2022/03/07 13:28:30;;;;;;;14.40;4.90;;;;;;;5.24;44.22;99310.65;232414;1220;138964;-58
2022/03/07 13:33:33;;;;;;;8.80;5.30;;;;;;;5.24;44.51;99306.29;232750;1220;139685;-60
2022/03/07 13:38:38;;;;;;;10.80;5.10;;;;;;;5.48;44.56;99301.34;232715;1220;139057;-60
2022/03/07 13:43:41;;;;;;;12.20;5.30;;;;;;;5.85;44.39;99296.27;231990;1220;138581;-59
2022/03/07 13:48:44;;;;;;;11.50;5.20;;;;;;;6.11;44.32;99290.33;233066;1220;138329;-60
2022/03/07 13:53:58;;;;;;;8.20;4.40;;;;;;;6.18;44.01;99283.90;232977;1220;138371;-60
2022/03/07 13:59:11;;;;;;;9.00;5.10;;;;;;;6.27;45.26;99288.79;232930;1220;138813;-66
2022/03/07 14:04:16;;;;;;;9.10;5.40;;;;;;;6.31;43.91;99285.27;232693;1220;140029;-65
2022/03/07 14:09:32;;;;;;;11.30;5.20;;;;;;;6.19;43.62;99290.20;232917;1211;138205;31
2022/03/07 14:14:35;;;;;;;8.30;4.50;;;;;;;6.11;43.27;99288.92;232593;1220;138430;-64
2022/03/07 14:19:38;;;;;;;9.30;4.90;;;;;;;6.02;43.36;99292.10;233304;1220;141019;-64
2022/03/07 14:24:41;;;;;;;13.80;4.50;;;;;;;5.88;43.33;99288.92;232960;1220;138782;-64
2022/03/07 14:29:44;;;;;;;10.80;4.20;;;;;;;5.77;43.41;99288.47;232303;1220;138380;-64
2022/03/07 14:34:49;;;;;;;8.00;4.40;;;;;;;5.69;43.58;99296.31;232891;1220;139078;-64
2022/03/07 14:39:54;;;;;;;10.40;3.70;;;;;;;5.65;43.90;99302.83;232688;1221;140008;-64
2022/03/07 14:44:57;;;;;;;8.10;4.00;;;;;;;5.62;44.17;99302.61;232944;1220;138386;-65
2022/03/07 14:50:01;;;;;;;6.50;3.60;;;;;;;5.68;44.43;99303.23;232969;1219;138706;-67
2022/03/07 14:55:05;;;;;;;7.20;3.40;;;;;;;5.65;44.27;99303.70;232838;1220;138900;-64
2022/03/07 15:00:23;;;;;;;65.50;39.30;;;;;;;5.63;44.21;99304.29;232868;1220;138493;-62
2022/03/07 15:05:26;;;;;;;15.00;7.50;;;;;;;5.70;44.76;99300.35;232848;1218;139615;-64
2022/03/07 15:10:31;;;;;;;10.10;5.00;;;;;;;5.69;44.53;99298.06;233174;1220;139325;-65
2022/03/07 15:15:40;;;;;;;8.00;4.30;;;;;;;5.62;44.34;99298.70;233143;1222;139284;-65
2022/03/07 15:20:43;;;;;;;8.90;4.70;;;;;;;5.57;44.29;99302.42;233177;1222;138546;-66
2022/03/07 15:25:51;;;;;;;10.30;4.40;;;;;;;5.53;44.41;99301.00;233343;1220;139008;-65
2022/03/07 15:30:56;;;;;;;7.60;4.30;;;;;;;5.50;44.51;99294.58;233290;1220;138264;-66
2022/03/07 15:35:59;;;;;;;8.50;4.40;;;;;;;5.45;44.59;99293.90;233164;1221;139807;-63
2022/03/07 15:41:03;;;;;;;8.70;4.80;;;;;;;5.40;44.89;99289.14;233426;1220;137993;-62
2022/03/07 15:46:09;;;;;;;14.20;5.40;;;;;;;5.39;44.80;99287.96;233511;1221;138826;-65
2022/03/07 15:51:13;;;;;;;11.00;5.70;;;;;;;5.38;44.75;99287.81;233281;1220;138370;-62
2022/03/07 15:56:20;;;;;;;12.60;5.60;;;;;;;5.40;45.28;99287.39;233253;1220;139193;-63
2022/03/07 16:01:23;;;;;;;10.60;5.50;;;;;;;5.39;45.17;99285.12;233238;1220;138295;-60
2022/03/07 16:06:27;;;;;;;14.30;6.30;;;;;;;5.39;45.11;99287.95;233257;1221;139429;-62
2022/03/07 16:11:30;;;;;;;13.20;7.20;;;;;;;5.39;45.25;99285.32;233282;1221;138457;-64
2022/03/07 16:16:36;;;;;;;15.30;7.30;;;;;;;5.37;45.51;99286.80;233440;1221;139146;-61
2022/03/07 16:21:40;;;;;;;14.70;7.20;;;;;;;5.35;45.35;99296.16;233354;1221;138720;-62
2022/03/07 16:26:44;;;;;;;16.60;7.40;;;;;;;5.36;45.46;99293.36;233152;1221;140777;-64
2022/03/07 16:31:48;;;;;;;17.80;7.50;;;;;;;5.39;45.84;99295.88;233227;1221;138407;-64
2022/03/07 16:36:51;;;;;;;15.50;8.20;;;;;;;5.39;46.00;99304.67;233321;1220;138462;-63
2022/03/07 16:41:55;;;;;;;12.90;6.40;;;;;;;5.41;45.97;99311.46;233364;1220;138652;-62
2022/03/07 16:46:58;;;;;;;13.30;6.00;;;;;;;5.40;46.26;99318.34;233333;1220;138719;-62
2022/03/07 16:52:01;;;;;;;11.90;5.60;;;;;;;5.39;46.49;99324.73;233541;1220;138447;-66
2022/03/07 16:57:16;;;;;;;13.50;5.30;;;;;;;5.35;46.54;99328.55;233299;1221;138502;-64
2022/03/07 17:02:19;;;;;;;10.50;5.70;;;;;;;5.34;46.34;99338.64;233324;1220;138351;-65
2022/03/07 17:07:22;;;;;;;12.40;5.70;;;;;;;5.33;46.60;99340.63;233199;1220;141377;-61
2022/03/07 17:12:26;;;;;;;10.60;5.00;;;;;;;5.31;46.79;99336.64;233112;1221;138277;-63
2022/03/07 17:17:33;;;;;;;13.70;6.10;;;;;;;5.27;46.94;99341.88;233399;1221;140100;-63
2022/03/07 17:22:37;;;;;;;11.30;6.40;;;;;;;5.23;47.09;99343.94;233412;1220;139090;-64
2022/03/07 17:27:40;;;;;;;14.20;7.00;;;;;;;5.20;47.13;99348.80;233254;1221;139071;-63
2022/03/07 17:32:43;;;;;;;14.60;6.20;;;;;;;5.16;47.07;99352.98;233287;1220;138798;-62
2022/03/07 17:37:46;;;;;;;16.50;8.50;;;;;;;5.12;47.22;99358.93;233357;1220;139019;-62
2022/03/07 17:42:49;;;;;;;20.20;10.10;;;;;;;5.09;47.26;99365.20;233344;1220;138605;-62
2022/03/07 17:47:52;;;;;;;290.00;151.30;;;;;;;5.07;47.07;99367.04;233439;1220;139032;-62
2022/03/07 17:52:56;;;;;;;30.80;15.30;;;;;;;5.12;47.82;99371.94;233243;1221;139144;-60
2022/03/07 17:57:59;;;;;;;23.50;10.30;;;;;;;5.10;47.39;99376.94;233168;1222;139387;-61
2022/03/07 18:03:02;;;;;;;19.50;10.60;;;;;;;5.05;47.49;99374.99;233306;1220;139622;-62
2022/03/07 18:08:06;;;;;;;23.70;11.80;;;;;;;5.00;47.71;99378.34;233355;1220;138699;-62
2022/03/07 18:13:09;;;;;;;24.50;12.30;;;;;;;4.94;48.14;99378.38;233426;1221;139332;-61
2022/03/07 18:18:12;;;;;;;25.20;13.00;;;;;;;4.87;47.74;99383.34;233429;1221;138821;-61
2022/03/07 18:23:16;;;;;;;30.10;15.00;;;;;;;4.81;48.15;99388.48;233373;1221;138355;-62
2022/03/07 18:28:19;;;;;;;28.30;15.00;;;;;;;4.77;48.29;99385.45;233446;1221;138726;-62
2022/03/07 18:33:22;;;;;;;36.40;17.90;;;;;;;4.73;48.35;99390.82;233304;1220;138696;-63
2022/03/07 18:38:25;;;;;;;51.10;22.20;;;;;;;4.74;48.51;99390.81;233216;1221;139336;-63
2022/03/07 18:43:28;;;;;;;34.80;18.80;;;;;;;4.72;48.64;99391.58;233247;1220;138759;-63
2022/03/07 18:48:34;;;;;;;30.30;15.70;;;;;;;4.65;48.84;99394.79;233374;1220;139032;-62
2022/03/07 18:53:37;;;;;;;26.80;15.20;;;;;;;4.59;48.67;99397.25;233309;1221;138891;-62
2022/03/07 18:58:40;;;;;;;28.20;15.10;;;;;;;4.56;48.86;99404.92;233504;1221;138368;-63
2022/03/07 19:03:43;;;;;;;25.10;14.50;;;;;;;4.53;49.01;99414.33;233303;1221;138712;-63
2022/03/07 19:08:47;;;;;;;25.80;13.00;;;;;;;4.50;49.22;99416.16;233158;1221;138310;-63
2022/03/07 19:13:50;;;;;;;22.80;12.60;;;;;;;4.49;49.02;99424.64;233307;1220;139128;-62
2022/03/07 19:18:53;;;;;;;22.40;12.60;;;;;;;4.46;49.24;99426.83;233348;1221;138498;-62
2022/03/07 19:23:56;;;;;;;25.80;13.70;;;;;;;4.43;49.37;99428.52;233277;1221;138411;-63
2022/03/07 19:29:00;;;;;;;29.00;15.30;;;;;;;4.41;49.42;99434.89;232541;1221;139019;-61
2022/03/07 19:34:03;;;;;;;22.80;12.70;;;;;;;4.40;49.77;99432.66;233396;1221;138642;-61
2022/03/07 19:39:06;;;;;;;27.90;13.40;;;;;;;4.38;49.72;99437.98;233367;1221;139076;-60
2022/03/07 19:44:09;;;;;;;24.40;13.00;;;;;;;4.38;49.68;99435.17;233301;1222;139057;-59
2022/03/07 19:49:12;;;;;;;24.40;13.70;;;;;;;4.39;49.85;99433.20;233329;1221;139762;-59
2022/03/07 19:54:15;;;;;;;22.00;12.60;;;;;;;4.42;50.00;99435.20;233335;1221;138684;-61
2022/03/07 19:59:18;;;;;;;23.20;13.80;;;;;;;4.43;50.01;99443.77;233420;1221;138527;-60
2022/03/07 20:04:21;;;;;;;21.70;12.70;;;;;;;4.44;49.75;99450.63;233387;1220;138093;-61
2022/03/07 20:09:26;;;;;;;22.20;12.80;;;;;;;4.41;49.99;99451.73;233260;1221;138801;-60
2022/03/07 20:14:29;;;;;;;19.30;12.20;;;;;;;4.40;49.94;99454.94;233273;1220;138702;-60
2022/03/07 20:19:32;;;;;;;20.90;12.30;;;;;;;4.39;50.48;99454.64;233396;1221;140598;-61
2022/03/07 20:24:35;;;;;;;24.50;13.00;;;;;;;4.37;50.37;99454.66;233327;1221;140469;-61
2022/03/07 20:29:38;;;;;;;20.80;11.70;;;;;;;4.40;50.26;99459.86;233351;1220;140281;-60
2022/03/07 20:34:41;;;;;;;197.30;133.70;;;;;;;4.41;50.35;99462.64;233380;1222;138472;-60
2022/03/07 20:39:44;;;;;;;31.80;18.00;;;;;;;4.85;52.10;99462.52;233284;1221;139344;-61
2022/03/07 20:44:48;;;;;;;24.20;14.90;;;;;;;4.90;50.80;99467.28;233239;1221;138780;-61
2022/03/07 20:49:51;;;;;;;24.70;14.70;;;;;;;4.71;50.45;99477.02;233379;1221;139060;-61
2022/03/07 20:54:54;;;;;;;25.60;14.50;;;;;;;4.55;50.36;99477.52;233258;1221;139988;-61
2022/03/07 20:59:58;;;;;;;26.30;14.50;;;;;;;4.44;50.33;99478.70;233225;1221;138905;-63
2022/03/07 21:05:01;;;;;;;30.00;15.20;;;;;;;4.43;50.57;99479.63;233337;1221;138427;-61
2022/03/07 21:10:06;;;;;;;26.30;14.20;;;;;;;4.35;50.68;99489.34;233387;1221;138529;-60
2022/03/07 21:15:11;;;;;;;28.60;15.60;;;;;;;4.27;50.83;99490.45;233256;1221;138666;-61
2022/03/07 21:20:14;;;;;;;27.70;16.50;;;;;;;4.19;50.68;99487.54;233311;1220;138949;-61
2022/03/07 21:25:17;;;;;;;28.60;15.20;;;;;;;4.13;50.89;99486.33;233261;1221;138600;-61
2022/03/07 21:30:20;;;;;;;29.90;16.00;;;;;;;4.07;50.89;99480.68;233172;1221;138635;-61
2022/03/07 21:35:26;;;;;;;29.20;15.50;;;;;;;4.02;51.23;99480.80;233364;1221;139078;-60
2022/03/07 21:40:29;;;;;;;27.20;15.90;;;;;;;3.99;51.22;99480.90;233148;1221;138313;-61
2022/03/07 21:45:33;;;;;;;28.80;16.10;;;;;;;3.92;51.11;99481.63;233259;1221;139069;-61
2022/03/07 21:50:36;;;;;;;27.20;15.50;;;;;;;3.87;51.37;99487.05;233395;1220;140468;-60
2022/03/07 21:55:39;;;;;;;34.10;17.50;;;;;;;3.79;51.42;99483.91;233323;1220;138635;-60
2022/03/07 22:00:42;;;;;;;27.10;16.50;;;;;;;3.75;51.57;99485.77;233426;1220;139288;-61
2022/03/07 22:05:45;;;;;;;34.00;16.70;;;;;;;3.70;51.55;99488.56;233204;1220;138873;-60
2022/03/07 22:10:49;;;;;;;32.20;17.30;;;;;;;3.66;52.01;99485.16;233312;1221;138975;-60
2022/03/07 22:15:53;;;;;;;31.10;16.00;;;;;;;3.63;51.93;99482.60;233532;1220;139188;-60
2022/03/07 22:21:00;;;;;;;28.10;16.40;;;;;;;3.59;52.11;99482.20;233238;1222;138798;-61
2022/03/07 22:26:03;;;;;;;60.50;39.10;;;;;;;3.58;52.35;99477.30;233086;1220;140624;-60
2022/03/07 22:31:08;;;;;;;42.10;24.10;;;;;;;3.75;53.27;99479.98;232488;1221;138892;-61
2022/03/07 22:36:12;;;;;;;29.20;17.40;;;;;;;3.82;52.84;99484.19;232787;1222;138571;-61
2022/03/07 22:41:15;;;;;;;34.00;15.40;;;;;;;3.73;52.59;99481.98;232812;1220;138404;-60
2022/03/07 22:46:18;;;;;;;25.40;15.20;;;;;;;3.67;52.65;99476.17;233026;1220;138601;-60
2022/03/07 22:51:22;;;;;;;26.20;13.70;;;;;;;3.65;52.81;99477.10;232779;1220;138716;-60
2022/03/07 22:56:25;;;;;;;25.60;13.80;;;;;;;3.69;53.02;99480.52;232865;1221;138839;-59
2022/03/07 23:01:28;;;;;;;26.50;13.60;;;;;;;3.67;53.22;99482.31;232792;1221;138901;-60
2022/03/07 23:11:53;;;;;;;23.20;12.90;;;;;;;3.73;53.41;99479.33;232619;1221;138141;-60